Time;durP1;ratioP1;P1;durP2;ratioP2;P2;SDS_P1;SDS_P2;PMS_P1;PMS_P2;Temp;Humidity;BMP_temperature;BMP_pressure;BME280_temperature;BME280_humidity;BME280_pressure;Samples;Min_cycle;Max_cycle;Signal;HPM_P1;HPM_P2
2021/03/29 00:01:18;;;;;;;10.35;2.80;;;;;;;9.26;52.05;100228.28;5054305;28;20049;-61
2021/03/29 00:03:45;;;;;;;5.43;2.42;;;;;;;9.26;51.79;100220.38;5054186;28;20410;-61
2021/03/29 00:06:12;;;;;;;12.18;3.25;;;;;;;9.29;51.64;100233.25;5054121;28;20661;-61
2021/03/29 00:08:41;;;;;;;9.88;3.00;;;;;;;9.28;51.76;100226.34;5052653;28;20048;-62
2021/03/29 00:11:09;;;;;;;8.20;3.20;;;;;;;9.30;51.68;100228.81;5053914;28;20479;-61
2021/03/29 00:13:36;;;;;;;11.80;3.60;;;;;;;9.32;51.78;100232.97;5052599;28;20045;-59
2021/03/29 00:16:04;;;;;;;8.48;3.25;;;;;;;9.30;51.79;100224.38;5052553;28;20471;-60
2021/03/29 00:18:31;;;;;;;8.75;3.05;;;;;;;9.25;51.82;100234.53;5053813;28;20041;-61
2021/03/29 00:21:03;;;;;;;10.23;3.42;;;;;;;9.22;51.82;100234.84;5054004;28;20399;-61
2021/03/29 00:23:30;;;;;;;9.57;2.88;;;;;;;9.15;51.99;100236.44;5054094;28;20491;-61
2021/03/29 00:25:58;;;;;;;7.80;2.97;;;;;;;9.10;52.28;100226.31;5052536;28;20063;-62
2021/03/29 00:28:25;;;;;;;7.78;3.05;;;;;;;9.07;52.43;100229.25;5053754;28;20048;-62
2021/03/29 00:30:52;;;;;;;7.13;3.28;;;;;;;9.05;52.25;100231.19;5053766;28;20049;-61
2021/03/29 00:33:21;;;;;;;7.22;2.78;;;;;;;9.08;52.28;100230.06;5053895;28;20044;-60
2021/03/29 00:35:49;;;;;;;8.43;2.60;;;;;;;9.04;52.71;100240.09;5053633;28;20037;-59
2021/03/29 00:38:17;;;;;;;5.88;2.75;;;;;;;9.01;52.67;100242.19;5053580;28;20075;-59
2021/03/29 00:40:48;;;;;;;6.55;2.75;;;;;;;8.95;52.86;100246.25;5053377;28;20049;-61
2021/03/29 00:43:17;;;;;;;6.20;3.05;;;;;;;8.92;53.07;100247.38;5053625;28;20049;-61
2021/03/29 00:45:46;;;;;;;9.45;2.97;;;;;;;8.86;53.31;100244.50;5053384;28;20056;-60
2021/03/29 00:48:13;;;;;;;10.55;3.83;;;;;;;8.80;53.29;100245.06;5052058;28;20063;-59
2021/03/29 00:50:46;;;;;;;6.53;2.72;;;;;;;8.82;53.37;100241.31;5053472;28;20029;-59
2021/03/29 00:53:16;;;;;;;7.05;2.97;;;;;;;8.83;53.32;100244.78;5052216;28;20084;-58
2021/03/29 00:55:44;;;;;;;8.60;2.97;;;;;;;8.87;53.34;100241.72;5052644;28;20048;-59
2021/03/29 00:58:13;;;;;;;6.72;3.08;;;;;;;8.84;53.28;100242.00;5053473;28;20052;-60
2021/03/29 01:00:44;;;;;;;8.88;3.00;;;;;;;8.82;53.59;100243.13;5051874;28;20492;-61
2021/03/29 01:03:14;;;;;;;9.30;2.97;;;;;;;8.77;53.77;100248.81;5053473;28;20055;-60
2021/03/29 01:05:42;;;;;;;6.32;2.90;;;;;;;8.74;53.69;100246.50;5052877;28;20040;-61
2021/03/29 01:08:11;;;;;;;5.88;2.85;;;;;;;8.81;53.66;100247.56;5053008;28;20119;-60
2021/03/29 01:10:37;;;;;;;5.85;2.65;;;;;;;8.81;53.91;100242.28;5053010;28;20116;-60
2021/03/29 01:13:08;;;;;;;7.55;3.25;;;;;;;8.74;54.12;100240.41;5052948;28;20053;-61
2021/03/29 01:15:37;;;;;;;7.90;3.35;;;;;;;8.58;54.22;100241.00;5051642;28;20414;-60
2021/03/29 01:18:10;;;;;;;7.55;3.70;;;;;;;8.38;55.32;100234.97;5051714;28;20510;-62
2021/03/29 01:20:55;;;;;;;7.18;3.05;;;;;;;8.16;55.92;100236.09;5052871;28;20045;-61
2021/03/29 01:23:25;;;;;;;6.13;3.03;;;;;;;7.97;56.55;100244.88;5052845;28;20045;-61
2021/03/29 01:25:58;;;;;;;8.73;2.80;;;;;;;7.99;56.65;100244.72;5052712;28;20037;-60
2021/03/29 01:28:27;;;;;;;7.93;3.58;;;;;;;7.99;56.39;100245.53;5052882;28;20045;-61
2021/03/29 01:30:54;;;;;;;6.40;3.63;;;;;;;8.00;56.63;100243.75;5052773;28;20053;-61
2021/03/29 01:33:22;;;;;;;9.50;3.45;;;;;;;7.98;56.70;100248.34;5052799;28;20037;-61
2021/03/29 01:35:55;;;;;;;7.07;3.58;;;;;;;7.96;56.58;100243.22;5052965;28;20041;-61
2021/03/29 01:38:24;;;;;;;6.70;2.90;;;;;;;7.94;56.42;100243.34;5052801;28;20414;-61
2021/03/29 01:40:52;;;;;;;8.63;3.88;;;;;;;7.94;56.98;100253.88;5052377;28;20408;-61
2021/03/29 01:43:20;;;;;;;7.60;3.13;;;;;;;7.97;56.62;100247.50;5052637;28;20048;-61
2021/03/29 01:45:49;;;;;;;9.80;3.30;;;;;;;7.96;56.62;100248.47;5052478;28;20079;-60
2021/03/29 01:48:16;;;;;;;5.70;2.67;;;;;;;7.88;56.80;100251.00;5052259;28;20487;-60
2021/03/29 01:50:44;;;;;;;7.63;2.88;;;;;;;7.82;56.97;100257.63;5052308;28;20037;-62
2021/03/29 01:53:13;;;;;;;6.75;3.50;;;;;;;7.77;57.17;100256.38;5051224;28;20124;-59
2021/03/29 01:55:40;;;;;;;5.15;2.50;;;;;;;7.76;57.25;100260.00;5050725;28;20053;-61
2021/03/29 01:58:09;;;;;;;7.53;3.25;;;;;;;7.83;57.44;100266.34;5052202;28;20049;-61
2021/03/29 02:00:39;;;;;;;7.50;2.78;;;;;;;7.91;56.87;100255.94;5051956;28;20037;-61
2021/03/29 02:03:09;;;;;;;8.20;3.42;;;;;;;7.87;56.80;100247.50;5052406;28;20510;-61
2021/03/29 02:05:37;;;;;;;6.47;2.92;;;;;;;7.91;56.83;100248.88;5051088;28;20110;-60
2021/03/29 02:08:05;;;;;;;9.10;3.55;;;;;;;7.87;56.68;100257.19;5052324;28;20041;-61
2021/03/29 02:10:34;;;;;;;7.18;2.65;;;;;;;7.83;56.84;100255.81;5051192;28;20064;-60
2021/03/29 02:13:03;;;;;;;5.72;2.75;;;;;;;7.77;56.99;100256.38;5052095;28;20041;-62
2021/03/29 02:15:31;;;;;;;7.43;3.10;;;;;;;7.74;57.09;100262.75;5052059;28;20056;-61
2021/03/29 02:17:59;;;;;;;8.60;3.13;;;;;;;7.61;57.31;100263.03;5051893;28;20044;-60
2021/03/29 02:20:34;;;;;;;5.47;3.05;;;;;;;7.50;57.75;100272.84;5052109;28;20199;-60
2021/03/29 02:23:02;;;;;;;7.70;3.25;;;;;;;7.42;57.85;100271.72;5051995;28;20056;-60
2021/03/29 02:25:31;;;;;;;4.72;2.72;;;;;;;7.50;57.95;100272.84;5051688;28;20053;-59
2021/03/29 02:28:00;;;;;;;4.88;2.47;;;;;;;7.48;57.93;100272.16;5051689;28;20041;-59
2021/03/29 02:30:31;;;;;;;7.07;3.22;;;;;;;7.45;58.09;100271.47;5051731;28;20051;-59
2021/03/29 02:32:58;;;;;;;10.00;3.28;;;;;;;7.43;57.90;100273.41;5052039;28;20438;-61
2021/03/29 02:35:26;;;;;;;5.38;2.70;;;;;;;7.36;58.29;100274.09;5053071;28;20495;-60
2021/03/29 02:37:56;;;;;;;6.15;2.80;;;;;;;7.38;58.53;100278.22;5052659;28;20052;-59
2021/03/29 02:40:25;;;;;;;7.82;3.08;;;;;;;7.42;58.32;100266.47;5051698;28;20052;-61
2021/03/29 02:42:54;;;;;;;8.70;3.80;;;;;;;7.49;58.39;100266.75;5052199;28;20049;-59
2021/03/29 02:45:24;;;;;;;11.43;4.00;;;;;;;7.51;58.19;100272.72;5052028;28;20488;-60
2021/03/29 02:47:55;;;;;;;9.77;3.80;;;;;;;7.40;58.17;100265.78;5054780;28;20053;-61
2021/03/29 02:50:24;;;;;;;7.25;3.28;;;;;;;7.31;58.63;100263.16;5055241;28;20128;-59
2021/03/29 02:52:55;;;;;;;8.57;3.50;;;;;;;7.30;59.05;100259.66;5056653;28;20564;-61
2021/03/29 02:55:22;;;;;;;5.97;2.90;;;;;;;7.37;58.80;100258.16;5056402;28;20053;-61
2021/03/29 02:57:52;;;;;;;9.43;3.25;;;;;;;7.39;58.78;100261.50;5056391;28;20037;-61
2021/03/29 03:00:22;;;;;;;8.90;3.70;;;;;;;7.35;58.88;100257.47;5057205;28;20048;-60
2021/03/29 03:02:50;;;;;;;5.10;3.47;;;;;;;7.31;59.07;100253.44;5051900;28;20049;-62
2021/03/29 03:05:20;;;;;;;9.30;3.65;;;;;;;7.26;59.06;100255.63;5054251;28;20087;-62
2021/03/29 03:07:47;;;;;;;8.43;3.75;;;;;;;7.14;59.42;100259.34;5053522;28;20120;-62
2021/03/29 03:10:15;;;;;;;10.90;3.03;;;;;;;7.04;59.66;100259.34;5051612;28;20128;-60
2021/03/29 03:12:43;;;;;;;6.75;3.38;;;;;;;7.03;59.77;100265.56;5053495;28;20056;-60
2021/03/29 03:15:15;;;;;;;6.40;3.50;;;;;;;7.04;59.82;100258.50;5052929;28;20059;-60
2021/03/29 03:17:42;;;;;;;7.68;3.55;;;;;;;7.08;59.77;100252.84;5053278;28;20051;-60
2021/03/29 03:20:11;;;;;;;7.85;3.38;;;;;;;7.15;59.80;100259.22;5055157;28;20041;-60
2021/03/29 03:22:51;;;;;;;6.90;3.60;;;;;;;7.18;59.93;100258.09;5056044;28;20103;-61
2021/03/29 03:25:21;;;;;;;6.60;3.70;;;;;;;7.15;59.72;100261.03;5055436;28;20052;-62
2021/03/29 03:27:48;;;;;;;9.13;3.53;;;;;;;7.19;59.90;100255.38;5055400;28;20041;-61
2021/03/29 03:30:18;;;;;;;8.95;3.63;;;;;;;7.27;59.90;100259.94;5054102;28;20092;-60
2021/03/29 03:32:45;;;;;;;8.02;3.80;;;;;;;7.23;59.40;100255.94;5055434;28;20051;-61
2021/03/29 03:35:14;;;;;;;5.63;3.13;;;;;;;7.17;59.70;100252.03;5055061;28;20052;-62
2021/03/29 03:37:43;;;;;;;7.20;3.35;;;;;;;7.16;59.60;100255.63;5054738;28;20037;-60
2021/03/29 03:40:11;;;;;;;8.55;3.35;;;;;;;7.10;60.05;100247.44;5054857;28;20041;-60
2021/03/29 03:42:40;;;;;;;6.72;2.70;;;;;;;7.17;60.07;100253.81;5054807;28;20457;-61
2021/03/29 03:45:08;;;;;;;10.15;3.38;;;;;;;7.30;59.56;100249.13;5054769;28;20045;-60
2021/03/29 03:47:37;;;;;;;8.35;2.83;;;;;;;7.20;59.21;100251.75;5054833;28;20490;-60
2021/03/29 03:50:08;;;;;;;7.50;3.00;;;;;;;7.07;59.54;100251.19;5054743;28;20447;-61
2021/03/29 03:52:36;;;;;;;9.90;3.38;;;;;;;6.99;59.81;100253.66;5054618;28;20061;-60
2021/03/29 03:55:04;;;;;;;7.07;3.47;;;;;;;6.92;60.31;100255.16;5054482;28;20047;-60
2021/03/29 03:57:33;;;;;;;6.47;3.15;;;;;;;6.88;60.23;100249.31;5054324;28;20094;-60
2021/03/29 04:00:00;;;;;;;7.45;3.08;;;;;;;6.85;60.42;100254.00;5054270;28;20063;-60
2021/03/29 04:02:27;;;;;;;14.05;4.03;;;;;;;6.83;60.44;100251.53;5054419;28;20069;-60
2021/03/29 04:04:54;;;;;;;6.85;3.65;;;;;;;6.82;60.55;100256.94;5054453;28;20056;-60
2021/03/29 04:07:21;;;;;;;8.00;3.60;;;;;;;6.78;60.50;100252.91;5054173;28;20044;-61
2021/03/29 04:09:56;;;;;;;5.45;2.83;;;;;;;6.77;60.54;100265.19;5053260;28;20140;-61
2021/03/29 04:12:23;;;;;;;6.35;2.92;;;;;;;6.80;60.61;100264.09;5055014;28;20128;-62
2021/03/29 04:14:50;;;;;;;15.02;8.27;;;;;;;6.75;60.53;100266.28;5054232;28;20037;-60
2021/03/29 04:17:17;;;;;;;10.77;5.05;;;;;;;6.69;60.73;100265.88;5054225;28;20503;-61
2021/03/29 04:19:44;;;;;;;7.40;3.38;;;;;;;6.63;60.75;100270.81;5054417;28;20565;-60
2021/03/29 04:22:11;;;;;;;11.63;3.97;;;;;;;6.57;60.92;100269.53;5054601;28;20044;-62
2021/03/29 04:24:38;;;;;;;10.63;4.10;;;;;;;6.54;61.15;100275.06;5052804;28;20045;-61
2021/03/29 04:27:05;;;;;;;12.48;4.78;;;;;;;6.50;61.26;100270.19;5052837;28;20052;-61
2021/03/29 04:29:32;;;;;;;15.57;4.05;;;;;;;6.40;61.65;100275.38;5054015;28;20056;-62
2021/03/29 04:31:59;;;;;;;11.70;5.40;;;;;;;6.33;61.96;100276.88;5053743;28;20045;-61
2021/03/29 04:34:26;;;;;;;13.73;6.10;;;;;;;6.33;62.26;100280.34;5054045;28;20055;-62
2021/03/29 04:36:53;;;;;;;13.05;5.28;;;;;;;6.38;62.17;100272.06;5054316;28;20056;-62
2021/03/29 04:39:20;;;;;;;11.55;4.72;;;;;;;6.39;62.16;100273.72;5052362;28;20045;-61
2021/03/29 04:41:47;;;;;;;10.27;4.72;;;;;;;6.38;62.05;100269.44;5053366;28;20515;-63
2021/03/29 04:44:14;;;;;;;7.97;3.90;;;;;;;6.41;61.97;100277.06;5053427;28;20053;-61
2021/03/29 04:46:41;;;;;;;8.20;4.15;;;;;;;6.42;62.13;100273.47;5053363;28;20040;-60
2021/03/29 04:49:07;;;;;;;10.38;4.00;;;;;;;6.44;61.93;100279.41;5053258;28;20141;-62
2021/03/29 04:51:35;;;;;;;7.30;3.47;;;;;;;6.42;61.75;100282.19;5052009;28;20041;-60
2021/03/29 04:54:02;;;;;;;8.18;4.28;;;;;;;6.40;61.73;100284.09;5053456;28;20048;-62
2021/03/29 04:56:29;;;;;;;10.73;3.95;;;;;;;6.34;61.75;100289.88;5053097;28;20051;-60
2021/03/29 04:58:55;;;;;;;9.57;3.78;;;;;;;6.27;61.95;100293.13;5051852;28;20048;-60
2021/03/29 05:01:22;;;;;;;9.20;3.95;;;;;;;6.13;62.25;100292.50;5053285;28;20047;-61
2021/03/29 05:03:49;;;;;;;8.68;3.70;;;;;;;6.14;62.35;100298.59;5053185;28;20040;-61
2021/03/29 05:06:15;;;;;;;7.30;4.07;;;;;;;6.17;62.36;100298.34;5052927;28;20052;-61
2021/03/29 05:08:43;;;;;;;10.82;4.72;;;;;;;6.25;62.23;100301.16;5053030;28;20045;-62
2021/03/29 05:11:11;;;;;;;11.35;3.97;;;;;;;6.27;62.36;100301.84;5052006;28;20387;-61
2021/03/29 05:13:38;;;;;;;11.88;4.63;;;;;;;6.29;62.26;100309.63;5052929;28;20045;-60
2021/03/29 05:16:05;;;;;;;10.98;4.05;;;;;;;6.22;62.43;100311.09;5053017;28;20368;-61
2021/03/29 05:18:32;;;;;;;8.98;3.88;;;;;;;6.25;62.57;100306.41;5052646;28;20057;-60
2021/03/29 05:20:59;;;;;;;10.48;4.22;;;;;;;6.20;62.36;100308.56;5051199;28;20049;-61
2021/03/29 05:23:26;;;;;;;11.75;4.50;;;;;;;6.14;62.68;100309.91;5051394;28;20048;-60
2021/03/29 05:25:54;;;;;;;23.55;8.95;;;;;;;6.19;62.89;100317.41;5052526;28;20128;-60
2021/03/29 05:28:21;;;;;;;24.10;8.02;;;;;;;6.27;62.37;100319.41;5052395;28;20045;-60
2021/03/29 05:30:48;;;;;;;42.60;11.35;;;;;;;6.34;62.29;100321.38;5052564;28;20056;-59
2021/03/29 05:33:15;;;;;;;14.57;5.95;;;;;;;6.33;62.00;100326.78;5052491;28;20052;-61
2021/03/29 05:35:42;;;;;;;14.23;4.78;;;;;;;6.28;61.84;100326.31;5052408;28;20045;-59
2021/03/29 05:38:10;;;;;;;9.98;3.78;;;;;;;6.22;61.90;100335.53;5055121;28;20068;-61
2021/03/29 05:40:36;;;;;;;9.20;3.38;;;;;;;6.06;62.09;100335.97;5057018;28;20422;-60
2021/03/29 05:43:05;;;;;;;6.50;3.55;;;;;;;6.04;62.33;100337.03;5051912;28;20048;-61
2021/03/29 05:45:32;;;;;;;12.88;5.65;;;;;;;6.03;62.10;100340.63;5050874;28;20048;-61
2021/03/29 05:47:59;;;;;;;8.43;4.20;;;;;;;6.07;62.15;100337.63;5050903;28;20056;-63
2021/03/29 05:50:26;;;;;;;13.75;4.30;;;;;;;6.15;61.98;100337.00;5051027;28;20067;-62
2021/03/29 05:52:53;;;;;;;7.68;3.90;;;;;;;6.20;62.16;100342.69;5050983;28;20136;-60
2021/03/29 05:55:22;;;;;;;9.32;4.22;;;;;;;6.22;61.92;100346.03;5051881;28;20533;-62
2021/03/29 06:00:41;;;;;;;12.30;4.22;;;;;;;6.30;61.85;100353.28;5048567;28;20454;-61
2021/03/29 06:03:29;;;;;;;9.93;4.00;;;;;;;6.39;61.87;100348.09;5052223;28;20049;-62
2021/03/29 06:05:57;;;;;;;7.47;3.50;;;;;;;6.42;61.73;100353.09;5051876;28;20148;-61
2021/03/29 06:08:24;;;;;;;14.30;4.13;;;;;;;6.50;61.67;100349.84;5051941;28;20053;-62
2021/03/29 06:10:54;;;;;;;13.57;4.07;;;;;;;6.58;61.56;100343.94;5051849;28;20037;-61
2021/03/29 06:13:24;;;;;;;13.43;4.13;;;;;;;6.63;61.53;100350.47;5050622;28;20056;-60
2021/03/29 06:16:07;;;;;;;8.68;4.15;;;;;;;6.77;61.33;100351.91;5050722;28;20041;-62
2021/03/29 06:18:35;;;;;;;7.45;4.00;;;;;;;6.81;61.14;100358.56;5051832;28;20055;-60
2021/03/29 06:21:09;;;;;;;11.18;4.20;;;;;;;6.89;61.10;100356.13;5051681;28;20094;-62
2021/03/29 06:23:36;;;;;;;6.67;4.13;;;;;;;6.95;60.84;100344.28;5051924;28;20049;-62
2021/03/29 06:26:24;;;;;;;10.98;4.13;;;;;;;7.07;60.71;100359.00;5051780;28;20041;-62
2021/03/29 06:28:51;;;;;;;10.40;4.50;;;;;;;7.15;60.50;100361.81;5050577;28;20383;-61
2021/03/29 06:31:21;;;;;;;11.90;4.30;;;;;;;7.25;60.39;100364.47;5060725;28;20063;-61
2021/03/29 06:33:50;;;;;;;11.55;4.22;;;;;;;7.15;59.88;100366.22;5067577;28;20045;-59
2021/03/29 06:36:27;;;;;;;9.95;4.25;;;;;;;7.10;60.18;100360.50;5062627;28;20048;-61
2021/03/29 06:38:54;;;;;;;13.38;5.32;;;;;;;7.12;60.27;100367.31;5061910;28;20495;-61
2021/03/29 06:41:26;;;;;;;21.33;6.07;;;;;;;7.25;60.30;100374.97;5056156;28;20047;-61
2021/03/29 06:43:53;;;;;;;15.15;5.82;;;;;;;7.43;60.08;100369.94;5051713;28;20479;-61
2021/03/29 06:46:23;;;;;;;10.23;5.03;;;;;;;7.55;59.64;100376.75;5050541;28;20091;-61
2021/03/29 06:48:50;;;;;;;11.38;5.20;;;;;;;7.78;59.30;100376.50;5051432;28;20041;-62
2021/03/29 06:51:19;;;;;;;10.18;4.43;;;;;;;7.93;58.41;100372.53;5050184;28;20041;-62
2021/03/29 06:53:51;;;;;;;9.80;4.65;;;;;;;8.12;58.03;100377.81;5050516;28;20132;-61
2021/03/29 06:56:23;;;;;;;14.98;5.63;;;;;;;8.27;57.54;100380.00;5055465;28;20045;-61
2021/03/29 06:58:51;;;;;;;13.95;5.55;;;;;;;8.38;57.25;100378.09;5055416;28;20045;-61
2021/03/29 07:01:20;;;;;;;14.73;4.75;;;;;;;8.50;57.01;100376.16;5055161;28;20059;-61
2021/03/29 07:03:49;;;;;;;12.93;4.60;;;;;;;8.55;56.74;100379.19;5055334;28;20050;-61
2021/03/29 07:06:18;;;;;;;8.73;4.13;;;;;;;8.63;56.17;100368.75;5055122;28;20044;-61
2021/03/29 07:08:45;;;;;;;7.45;3.67;;;;;;;8.78;55.94;100369.16;5055968;28;20414;-61
2021/03/29 07:11:14;;;;;;;9.60;4.10;;;;;;;8.82;55.44;100374.97;5055633;28;20092;-61
2021/03/29 07:13:41;;;;;;;8.70;4.07;;;;;;;8.90;55.38;100370.66;5054899;28;20045;-60
2021/03/29 07:16:09;;;;;;;10.07;3.67;;;;;;;9.02;55.09;100375.72;5056176;28;20487;-60
2021/03/29 07:18:36;;;;;;;8.18;3.70;;;;;;;9.10;54.79;100378.47;5055984;28;20041;-60
2021/03/29 07:21:06;;;;;;;9.13;4.05;;;;;;;9.17;54.29;100369.84;5055039;28;20052;-59
2021/03/29 07:23:38;;;;;;;9.38;3.22;;;;;;;9.31;54.07;100376.47;5055214;28;20045;-59
2021/03/29 07:26:20;;;;;;;6.97;3.55;;;;;;;9.37;53.33;100373.22;5054853;28;20045;-59
2021/03/29 07:28:49;;;;;;;9.20;3.78;;;;;;;9.47;53.39;100378.47;5055117;28;20045;-60
2021/03/29 07:31:36;;;;;;;8.43;3.50;;;;;;;9.53;52.83;100382.34;5054958;28;20127;-61
2021/03/29 07:34:03;;;;;;;9.98;4.05;;;;;;;9.57;52.75;100376.59;5054910;28;20045;-58
2021/03/29 07:36:45;;;;;;;8.52;3.70;;;;;;;9.68;52.67;100379.06;5054705;28;20045;-62
2021/03/29 07:39:13;;;;;;;7.47;3.42;;;;;;;9.80;52.40;100386.78;5054906;28;20041;-62
2021/03/29 07:41:40;;;;;;;7.30;3.17;;;;;;;9.85;52.36;100382.69;5054488;28;20045;-62
2021/03/29 07:44:13;;;;;;;9.48;4.03;;;;;;;9.97;51.95;100390.41;5054721;28;20049;-62
2021/03/29 07:46:42;;;;;;;9.13;3.67;;;;;;;10.00;51.81;100390.09;5054644;28;20498;-61
2021/03/29 07:49:46;;;;;;;9.10;3.78;;;;;;;10.15;51.54;100392.06;5054538;28;20048;-61
2021/03/29 07:52:32;;;;;;;9.85;3.75;;;;;;;10.22;51.50;100394.13;5054555;28;20094;-61
2021/03/29 07:55:00;;;;;;;9.82;4.03;;;;;;;10.35;51.37;100392.75;5054446;28;20096;-62
2021/03/29 07:57:59;;;;;;;10.98;3.63;;;;;;;10.48;50.96;100402.94;5054517;28;20033;-61
2021/03/29 08:00:49;;;;;;;7.03;2.95;;;;;;;10.65;50.69;100398.59;5054307;28;20040;-61
2021/03/29 08:03:36;;;;;;;8.30;3.90;;;;;;;10.74;50.31;100394.25;5054293;28;20048;-60
2021/03/29 08:06:04;;;;;;;6.63;3.10;;;;;;;10.82;50.14;100391.66;5053934;28;20048;-61
2021/03/29 08:08:41;;;;;;;5.97;3.17;;;;;;;10.94;49.92;100387.75;5054234;28;20415;-60
2021/03/29 08:11:11;;;;;;;7.13;4.13;;;;;;;11.08;50.24;100387.16;5052887;28;20399;-61
2021/03/29 08:13:39;;;;;;;7.25;3.17;;;;;;;11.18;49.73;100389.69;5054159;28;20067;-61
2021/03/29 08:16:08;;;;;;;10.02;3.90;;;;;;;11.30;49.41;100380.47;5054306;28;20399;-61
2021/03/29 08:19:07;;;;;;;7.60;3.05;;;;;;;11.41;49.09;100390.78;5053954;28;20213;-61
2021/03/29 08:21:46;;;;;;;5.63;3.45;;;;;;;11.53;48.68;100385.22;5054118;28;20131;-61
2021/03/29 08:24:28;;;;;;;7.03;3.80;;;;;;;11.64;48.43;100391.06;5054093;28;20041;-61
2021/03/29 08:26:56;;;;;;;9.43;3.83;;;;;;;11.74;48.22;100390.09;5054224;28;20052;-61
2021/03/29 08:29:29;;;;;;;13.38;3.58;;;;;;;11.90;47.71;100390.97;5054053;28;20384;-60
2021/03/29 08:32:09;;;;;;;9.63;3.37;;;;;;;12.01;47.58;100391.69;5053951;28;20048;-61
2021/03/29 08:34:42;;;;;;;7.93;3.13;;;;;;;12.13;47.17;100395.69;5052507;28;20049;-61
2021/03/29 08:37:12;;;;;;;7.03;3.53;;;;;;;12.31;47.03;100390.22;5054059;28;20057;-61
2021/03/29 08:39:42;;;;;;;7.60;2.90;;;;;;;12.47;46.40;100394.69;5054457;28;20037;-61
2021/03/29 08:42:09;;;;;;;5.95;2.88;;;;;;;12.55;45.87;100392.88;5055794;28;20045;-61
2021/03/29 08:44:39;;;;;;;9.23;3.35;;;;;;;12.74;45.76;100390.88;5054800;28;20407;-62
2021/03/29 08:47:11;;;;;;;7.85;2.88;;;;;;;12.83;45.31;100398.66;5053732;28;20051;-60
2021/03/29 08:49:38;;;;;;;8.18;2.95;;;;;;;12.95;44.56;100393.00;5053360;28;20044;-61
2021/03/29 08:52:07;;;;;;;6.97;3.13;;;;;;;13.08;44.35;100390.63;5053242;28;20040;-62
2021/03/29 08:54:34;;;;;;;8.25;2.58;;;;;;;13.12;43.94;100394.59;5053133;28;20040;-63
2021/03/29 08:57:05;;;;;;;7.00;2.72;;;;;;;13.22;43.75;100397.06;5053300;28;20049;-61
2021/03/29 08:59:32;;;;;;;7.50;2.70;;;;;;;13.33;43.74;100400.19;5053094;28;20041;-62
2021/03/29 09:01:59;;;;;;;8.82;3.00;;;;;;;13.40;43.53;100408.31;5052918;28;20079;-62
2021/03/29 09:04:26;;;;;;;7.95;3.03;;;;;;;13.45;43.21;100405.16;5052919;28;20036;-63
2021/03/29 09:06:55;;;;;;;8.07;3.50;;;;;;;13.57;43.01;100401.13;5051877;28;20068;-62
2021/03/29 09:09:23;;;;;;;5.68;2.72;;;;;;;13.69;42.74;100409.53;5052879;28;20045;-62
2021/03/29 09:11:52;;;;;;;4.65;2.75;;;;;;;13.79;42.71;100400.31;5053341;28;20406;-61
2021/03/29 09:14:20;;;;;;;7.35;2.85;;;;;;;13.95;42.25;100403.91;5052864;28;20098;-63
2021/03/29 09:16:56;;;;;;;5.78;3.17;;;;;;;14.08;41.78;100397.03;5052189;28;20036;-62
2021/03/29 09:19:23;;;;;;;8.85;2.75;;;;;;;14.19;41.56;100406.41;5052778;28;20052;-62
2021/03/29 09:21:55;;;;;;;7.80;2.88;;;;;;;14.32;40.99;100403.16;5052481;28;20044;-60
2021/03/29 09:24:23;;;;;;;5.57;2.70;;;;;;;14.37;40.97;100401.63;5052812;28;20098;-60
2021/03/29 09:26:59;;;;;;;7.10;3.10;;;;;;;14.52;40.42;100392.88;5053417;28;20502;-60
2021/03/29 09:29:34;;;;;;;4.88;2.25;;;;;;;14.68;40.26;100405.22;5052855;28;20052;-61
2021/03/29 09:32:06;;;;;;;5.50;2.55;;;;;;;14.80;39.71;100398.47;5052589;28;20049;-63
2021/03/29 09:34:34;;;;;;;5.65;2.05;;;;;;;14.97;38.90;100399.13;5052498;28;20511;-63
2021/03/29 09:37:02;;;;;;;6.72;2.45;;;;;;;15.03;38.20;100395.75;5052718;28;20538;-63
2021/03/29 09:39:30;;;;;;;6.38;2.30;;;;;;;15.14;38.12;100397.09;5052501;28;20050;-62
2021/03/29 09:42:01;;;;;;;5.97;2.25;;;;;;;15.29;38.02;100404.09;5052552;28;20553;-62
2021/03/29 09:44:30;;;;;;;4.97;2.47;;;;;;;15.34;37.44;100398.22;5051946;28;20136;-61
2021/03/29 09:46:59;;;;;;;4.47;2.65;;;;;;;15.46;37.22;100401.22;5052307;28;20047;-61
2021/03/29 09:49:26;;;;;;;4.68;1.98;;;;;;;15.53;36.93;100407.47;5052549;28;20136;-62
2021/03/29 09:52:03;;;;;;;4.97;2.10;;;;;;;15.63;36.70;100397.34;5052453;28;20048;-60
2021/03/29 09:54:32;;;;;;;4.75;2.05;;;;;;;15.65;36.15;100400.69;5052478;28;20553;-61
2021/03/29 09:57:12;;;;;;;5.95;2.22;;;;;;;15.68;36.20;100403.00;5052529;28;20119;-61
2021/03/29 09:59:41;;;;;;;3.88;1.67;;;;;;;15.69;35.73;100399.31;5050922;28;20522;-61
2021/03/29 10:02:14;;;;;;;7.30;1.90;;;;;;;15.76;35.24;100397.56;5052261;28;20044;-61
2021/03/29 10:04:42;;;;;;;6.40;1.98;;;;;;;15.87;35.16;100401.56;5051976;28;20041;-61
2021/03/29 10:07:14;;;;;;;5.60;2.30;;;;;;;15.97;34.86;100393.28;5050686;28;20048;-61
2021/03/29 10:09:46;;;;;;;5.18;2.38;;;;;;;16.02;34.72;100399.69;5051860;28;20041;-61
2021/03/29 10:12:23;;;;;;;7.82;2.20;;;;;;;16.10;34.00;100398.72;5052141;28;20052;-61
2021/03/29 10:14:50;;;;;;;4.25;1.83;;;;;;;16.21;34.00;100405.44;5070914;28;20041;-61
2021/03/29 10:17:18;;;;;;;4.88;2.13;;;;;;;16.32;33.75;100400.38;5074084;28;20072;-63
2021/03/29 10:19:46;;;;;;;6.68;1.98;;;;;;;16.41;33.92;100395.75;5059662;28;20601;-61
2021/03/29 10:22:16;;;;;;;5.32;2.42;;;;;;;16.60;33.92;100402.28;5051956;28;20352;-62
2021/03/29 10:24:57;;;;;;;4.30;1.98;;;;;;;16.74;32.94;100404.06;5051954;28;20495;-61
2021/03/29 10:27:35;;;;;;;7.30;2.00;;;;;;;16.73;33.48;100398.91;5052036;28;20049;-61
2021/03/29 10:30:04;;;;;;;5.50;2.22;;;;;;;16.76;32.94;100399.34;5052114;28;20044;-62
2021/03/29 10:32:31;;;;;;;3.40;2.00;;;;;;;16.91;32.42;100396.59;5051941;28;20514;-62
2021/03/29 10:34:58;;;;;;;3.05;1.70;;;;;;;17.01;31.69;100398.91;5051841;28;20041;-62
2021/03/29 10:37:27;;;;;;;5.38;2.35;;;;;;;16.98;31.35;100392.13;5051579;28;20499;-61
2021/03/29 10:39:55;;;;;;;4.57;2.28;;;;;;;17.13;31.33;100394.66;5050246;28;20545;-62
2021/03/29 10:42:24;;;;;;;4.72;2.08;;;;;;;17.26;30.91;100393.91;5051599;28;20422;-62
2021/03/29 10:44:52;;;;;;;4.72;2.30;;;;;;;17.28;30.20;100391.88;5051417;28;20052;-62
2021/03/29 10:47:19;;;;;;;4.75;2.08;;;;;;;17.25;30.01;100389.59;5051630;28;20048;-61
2021/03/29 10:49:46;;;;;;;5.07;1.70;;;;;;;17.22;30.80;100380.13;5051645;28;20045;-60
2021/03/29 10:52:13;;;;;;;4.40;2.13;;;;;;;17.32;30.80;100385.94;5051737;28;20041;-63
2021/03/29 10:54:40;;;;;;;3.53;2.10;;;;;;;17.43;30.73;100383.72;5051608;28;20040;-61
2021/03/29 10:57:07;;;;;;;4.85;2.17;;;;;;;17.55;30.36;100385.66;5051625;28;20045;-62
2021/03/29 10:59:34;;;;;;;3.92;2.17;;;;;;;17.65;30.18;100377.25;5051365;28;20124;-62
2021/03/29 11:02:01;;;;;;;11.38;6.75;;;;;;;17.69;30.55;100377.66;5051462;28;20037;-62
2021/03/29 11:04:29;;;;;;;3.50;1.95;;;;;;;17.71;29.79;100383.63;5051455;28;20045;-62
2021/03/29 11:06:55;;;;;;;4.35;1.65;;;;;;;17.68;28.92;100373.34;5051947;28;20049;-62
2021/03/29 11:09:23;;;;;;;3.75;1.90;;;;;;;17.68;28.62;100379.53;5052136;28;20060;-61
2021/03/29 11:11:50;;;;;;;3.78;1.88;;;;;;;17.57;28.82;100380.09;5051705;28;20309;-61
2021/03/29 11:14:18;;;;;;;4.18;1.90;;;;;;;17.64;29.26;100372.09;5051190;28;20033;-61
2021/03/29 11:16:45;;;;;;;3.47;2.10;;;;;;;17.66;29.44;100372.72;5051454;28;20562;-59
2021/03/29 11:19:12;;;;;;;5.47;2.65;;;;;;;17.90;30.38;100366.03;5051221;28;20040;-61
2021/03/29 11:21:40;;;;;;;3.58;2.03;;;;;;;18.14;28.68;100376.16;5051461;28;20403;-61
2021/03/29 11:24:07;;;;;;;3.70;1.95;;;;;;;18.14;28.85;100372.66;5051679;28;20048;-61
2021/03/29 11:26:34;;;;;;;3.72;1.60;;;;;;;18.24;28.20;100381.94;5051093;28;20052;-60
2021/03/29 11:29:00;;;;;;;3.78;1.77;;;;;;;18.23;27.16;100366.91;5051104;28;20080;-61
2021/03/29 11:31:27;;;;;;;5.85;1.95;;;;;;;18.23;26.88;100366.91;5051208;28;20041;-61
2021/03/29 11:33:54;;;;;;;4.45;1.90;;;;;;;18.21;26.94;100376.19;5051364;28;20300;-61
2021/03/29 11:36:21;;;;;;;3.83;1.52;;;;;;;18.27;27.22;100360.13;5051086;28;20499;-62
2021/03/29 11:38:49;;;;;;;3.65;1.67;;;;;;;18.36;26.97;100357.22;5051255;28;20098;-61
2021/03/29 11:41:19;;;;;;;3.70;1.67;;;;;;;18.42;25.94;100359.09;5053345;28;20047;-59
2021/03/29 11:43:46;;;;;;;3.83;1.70;;;;;;;18.50;25.62;100354.38;5053406;28;20048;-59